Terminal Aerodrome Forecast
Issued by NWS

Home | Current Version | Previous Version | Text Only | Print | Product List | Glossary On
Versions: 1 2 3 4 5 6 7 8 9 10 11 12
000
FTUS45 KREV 200520
TAFMMH
TAF
KMMH 200520Z 2006/2106 22014G26KT P6SM SCT080 BKN140
     FM201300 25023G36KT P6SM VCSH BKN060
     FM201600 27018G30KT P6SM SCT060 SCT100
     FM210200 29010G18KT P6SM SCT150=

USA.gov is the U.S. government's official web portal to all federal, state and local government web resources and services.